createdAt,value
2018-12-31T00:00:30.690Z,20.27
2018-12-31T00:03:04.490Z,22.37
2018-12-31T00:05:37.918Z,22.13
2018-12-31T00:08:11.127Z,23.47
2018-12-31T00:10:44.331Z,24.77
2018-12-31T00:13:17.230Z,24.57
2018-12-31T00:15:50.236Z,23.97
2018-12-31T00:18:23.340Z,20.93
2018-12-31T00:20:56.748Z,21.80
2018-12-31T00:23:30.275Z,29.40
2018-12-31T00:26:04.031Z,31.87
2018-12-31T00:28:37.832Z,28.13
2018-12-31T00:31:11.258Z,27.77
2018-12-31T00:33:44.722Z,26.10
2018-12-31T00:36:17.698Z,24.93
2018-12-31T00:38:50.672Z,22.93
2018-12-31T00:41:23.930Z,23.40
2018-12-31T00:43:56.934Z,24.60
2018-12-31T00:46:29.765Z,25.63
2018-12-31T00:49:02.689Z,24.60
2018-12-31T00:51:35.540Z,43.57
2018-12-31T00:54:08.399Z,33.47
2018-12-31T00:56:41.467Z,29.73
2018-12-31T00:59:14.534Z,29.70
2018-12-31T01:01:49.046Z,68.93
2018-12-31T01:04:21.979Z,48.63
2018-12-31T01:06:54.760Z,39.63
2018-12-31T01:09:27.869Z,40.10
2018-12-31T01:12:00.912Z,34.30
2018-12-31T01:14:34.023Z,54.43
2018-12-31T01:17:07.283Z,45.07
2018-12-31T01:19:40.400Z,37.17
2018-12-31T01:22:13.986Z,45.53
2018-12-31T01:24:47.390Z,44.57
2018-12-31T01:27:20.515Z,35.13
2018-12-31T01:29:53.330Z,46.07
2018-12-31T01:32:26.089Z,60.10
2018-12-31T01:34:59.160Z,43.70
2018-12-31T01:37:32.058Z,42.33
2018-12-31T01:40:05.065Z,44.73
2018-12-31T01:42:39.306Z,42.10
2018-12-31T01:45:13.371Z,38.57
2018-12-31T01:47:46.619Z,35.77
2018-12-31T01:50:19.495Z,34.13
2018-12-31T01:52:52.445Z,33.13
2018-12-31T01:55:25.403Z,35.23
2018-12-31T01:57:58.269Z,36.07
2018-12-31T02:00:31.737Z,36.47
2018-12-31T02:03:04.794Z,34.67
2018-12-31T02:05:38.045Z,35.27
2018-12-31T02:08:12.316Z,32.23
2018-12-31T02:10:45.173Z,30.70
2018-12-31T02:13:18.210Z,31.47
2018-12-31T02:15:52.390Z,30.37
2018-12-31T02:18:25.202Z,36.60
2018-12-31T02:20:57.979Z,34.43
2018-12-31T02:23:30.995Z,34.37
2018-12-31T02:26:03.809Z,41.70
2018-12-31T02:28:37.035Z,43.37
2018-12-31T02:31:11.084Z,44.70
2018-12-31T02:33:44.458Z,42.40
2018-12-31T02:36:17.234Z,43.33
2018-12-31T02:38:50.113Z,44.90
2018-12-31T02:41:22.852Z,43.90
2018-12-31T02:43:55.869Z,49.07
2018-12-31T02:46:29.056Z,50.33
2018-12-31T02:49:01.949Z,49.40
2018-12-31T02:51:35.125Z,47.23
2018-12-31T02:54:08.098Z,41.50
2018-12-31T02:56:41.203Z,41.60
2018-12-31T02:59:14.081Z,44.43
2018-12-31T03:01:47.093Z,46.73
2018-12-31T03:04:20.132Z,48.20
2018-12-31T03:06:53.270Z,54.27
2018-12-31T03:09:27.204Z,47.10
2018-12-31T03:12:00.288Z,40.47
2018-12-31T03:14:33.360Z,42.50
2018-12-31T03:17:06.332Z,39.47
2018-12-31T03:19:39.575Z,46.97
2018-12-31T03:22:13.707Z,43.70
2018-12-31T03:24:46.466Z,41.13
2018-12-31T03:27:19.279Z,41.87
2018-12-31T03:29:52.508Z,43.27
2018-12-31T03:32:26.752Z,47.00
2018-12-31T03:34:59.569Z,42.70
2018-12-31T03:37:32.622Z,46.07
2018-12-31T03:40:05.904Z,43.87
2018-12-31T03:42:38.913Z,42.60
2018-12-31T03:45:11.919Z,38.97
2018-12-31T03:51:05.282Z,40.17
2018-12-31T03:53:38.480Z,41.00
2018-12-31T03:56:11.535Z,33.67
2018-12-31T03:58:44.707Z,55.37
2018-12-31T04:01:17.906Z,72.13
2018-12-31T04:03:50.637Z,74.17
2018-12-31T04:06:23.780Z,67.93
2018-12-31T04:08:56.699Z,38.93
2018-12-31T04:11:29.801Z,34.77
2018-12-31T04:14:02.586Z,52.80
2018-12-31T04:16:35.291Z,38.87
2018-12-31T04:19:08.551Z,33.13
2018-12-31T04:21:41.569Z,32.63
2018-12-31T04:24:14.512Z,28.47
2018-12-31T04:26:47.476Z,27.83
2018-12-31T04:29:20.312Z,31.27
2018-12-31T04:31:54.166Z,30.27
2018-12-31T04:34:26.880Z,34.73
2018-12-31T04:36:59.920Z,39.57
2018-12-31T04:39:32.788Z,33.67
2018-12-31T04:42:05.815Z,34.33
2018-12-31T04:44:38.793Z,31.63
2018-12-31T04:47:12.179Z,29.53
2018-12-31T04:49:45.296Z,32.10
2018-12-31T04:52:18.554Z,31.97
2018-12-31T04:54:51.657Z,30.10
2018-12-31T04:57:24.655Z,28.37
2018-12-31T04:59:57.985Z,30.20
2018-12-31T05:02:30.909Z,31.93
2018-12-31T05:05:03.811Z,32.63
2018-12-31T05:07:36.726Z,35.87
2018-12-31T05:10:10.386Z,27.83
2018-12-31T05:12:43.295Z,26.57
2018-12-31T05:15:16.345Z,27.00
2018-12-31T05:17:49.371Z,26.63
2018-12-31T05:20:22.650Z,26.53
2018-12-31T05:22:55.343Z,25.03
2018-12-31T05:25:28.400Z,24.53
2018-12-31T05:28:01.119Z,25.37
2018-12-31T05:30:34.191Z,24.47
2018-12-31T05:33:07.224Z,25.33
2018-12-31T05:35:40.323Z,27.13
2018-12-31T05:38:13.276Z,29.27
2018-12-31T05:40:46.301Z,32.37
2018-12-31T05:43:19.596Z,50.93
2018-12-31T05:45:52.559Z,42.77
2018-12-31T05:48:25.720Z,27.67
2018-12-31T05:50:59.065Z,27.77
2018-12-31T05:53:31.952Z,31.23
2018-12-31T05:56:06.294Z,27.03
2018-12-31T05:58:39.243Z,29.57
2018-12-31T06:01:12.390Z,25.63
2018-12-31T06:03:45.331Z,25.33
2018-12-31T06:06:18.477Z,26.37
2018-12-31T06:08:51.417Z,31.60
2018-12-31T06:11:24.324Z,27.60
2018-12-31T06:13:57.325Z,30.63
2018-12-31T06:16:31.906Z,55.12
2018-12-31T06:19:04.752Z,46.77
2018-12-31T06:21:38.775Z,39.43
2018-12-31T06:24:11.745Z,36.80
2018-12-31T06:26:44.667Z,41.20
2018-12-31T06:29:18.782Z,42.40
2018-12-31T06:31:51.790Z,34.00
2018-12-31T06:34:24.649Z,47.03
2018-12-31T06:36:57.601Z,37.80
2018-12-31T06:39:30.589Z,38.77
2018-12-31T06:42:03.630Z,42.50
2018-12-31T06:44:38.032Z,47.13
2018-12-31T06:47:11.138Z,35.10
2018-12-31T06:49:44.456Z,31.60
2018-12-31T06:52:17.857Z,28.43
2018-12-31T06:54:50.898Z,32.90
2018-12-31T06:57:25.267Z,38.63
2018-12-31T06:59:58.322Z,31.60
2018-12-31T07:02:31.543Z,29.10
2018-12-31T07:05:04.719Z,31.57
2018-12-31T07:07:38.251Z,37.47
2018-12-31T07:10:11.612Z,35.43
2018-12-31T07:12:44.690Z,32.50
2018-12-31T07:15:17.919Z,30.60
2018-12-31T07:17:51.294Z,29.00
2018-12-31T07:20:26.195Z,30.53
2018-12-31T07:23:00.570Z,33.50
2018-12-31T07:25:36.664Z,32.80
2018-12-31T07:28:14.931Z,35.87
2018-12-31T07:30:49.805Z,34.57
2018-12-31T07:33:25.150Z,35.70
2018-12-31T07:36:02.627Z,38.40
2018-12-31T07:38:35.809Z,43.53
2018-12-31T07:41:09.091Z,37.03
2018-12-31T07:43:42.426Z,35.27
2018-12-31T07:46:15.461Z,36.13
2018-12-31T07:48:48.593Z,42.77
2018-12-31T07:51:21.538Z,38.90
2018-12-31T07:53:54.688Z,44.80
2018-12-31T07:56:27.614Z,39.10
2018-12-31T07:59:01.096Z,36.07
2018-12-31T08:01:34.207Z,36.77
2018-12-31T08:04:07.208Z,47.00
2018-12-31T08:06:40.690Z,36.80
2018-12-31T08:09:14.047Z,34.40
2018-12-31T08:11:47.417Z,30.20
2018-12-31T08:14:20.551Z,28.60
2018-12-31T08:16:53.802Z,27.70
2018-12-31T08:19:27.302Z,29.40
2018-12-31T08:22:00.326Z,26.83
2018-12-31T08:24:33.612Z,25.53
2018-12-31T08:27:06.522Z,30.63
2018-12-31T08:29:39.827Z,28.90
2018-12-31T08:32:13.016Z,24.20
2018-12-31T08:34:46.123Z,24.40
2018-12-31T08:37:19.703Z,21.33
2018-12-31T08:39:52.805Z,23.30
2018-12-31T08:42:25.654Z,21.73
2018-12-31T08:44:58.953Z,19.83
2018-12-31T08:47:32.101Z,26.17
2018-12-31T08:50:05.139Z,28.43
2018-12-31T08:52:38.912Z,29.07
2018-12-31T08:55:12.351Z,30.57
2018-12-31T08:57:45.775Z,28.37
2018-12-31T09:00:18.646Z,28.13
2018-12-31T09:02:51.717Z,45.40
2018-12-31T09:05:24.832Z,41.30
2018-12-31T09:07:58.058Z,45.93
2018-12-31T09:10:31.484Z,25.70
2018-12-31T09:13:04.669Z,21.57
2018-12-31T09:15:38.324Z,19.77
2018-12-31T09:18:11.364Z,19.93
2018-12-31T09:20:44.769Z,18.90
2018-12-31T09:23:17.824Z,18.87
2018-12-31T09:25:50.798Z,12.77
2018-12-31T09:28:23.718Z,9.30
2018-12-31T09:30:56.332Z,10.20
2018-12-31T09:33:29.282Z,12.60
2018-12-31T09:36:02.346Z,11.60
2018-12-31T09:38:35.371Z,13.80
2018-12-31T09:41:09.383Z,12.03
2018-12-31T09:43:42.415Z,11.50
2018-12-31T09:46:15.643Z,12.13
2018-12-31T09:48:48.595Z,11.80
2018-12-31T09:51:22.040Z,11.93
2018-12-31T09:53:55.408Z,10.57
2018-12-31T09:56:28.164Z,10.90
2018-12-31T09:59:00.970Z,10.30
2018-12-31T10:01:34.274Z,8.47
2018-12-31T10:04:07.510Z,7.20
2018-12-31T10:06:40.157Z,11.13
2018-12-31T10:09:13.481Z,8.63
2018-12-31T10:11:46.561Z,9.50
2018-12-31T10:14:19.720Z,11.00
2018-12-31T10:16:57.478Z,10.40
2018-12-31T10:19:30.859Z,9.20
2018-12-31T10:22:04.018Z,9.10
2018-12-31T10:24:37.024Z,9.33
2018-12-31T10:27:10.008Z,9.10
2018-12-31T10:29:43.086Z,8.40
2018-12-31T10:32:16.119Z,7.67
2018-12-31T10:34:49.517Z,8.40
2018-12-31T10:37:22.672Z,8.63
2018-12-31T10:39:56.245Z,7.67
2018-12-31T10:42:29.871Z,6.90
2018-12-31T10:45:03.083Z,8.67
2018-12-31T10:47:35.855Z,8.20
2018-12-31T10:50:10.947Z,8.13
2018-12-31T10:52:44.358Z,8.13
2018-12-31T10:55:17.912Z,8.93
2018-12-31T10:57:51.186Z,9.10
2018-12-31T11:00:27.317Z,8.23
2018-12-31T11:03:00.289Z,9.00
2018-12-31T11:05:33.687Z,8.80
2018-12-31T11:08:06.701Z,7.97
2018-12-31T11:10:40.140Z,8.57
2018-12-31T11:13:13.066Z,9.10
2018-12-31T11:15:46.424Z,11.30
2018-12-31T11:18:19.915Z,9.50
2018-12-31T11:20:53.072Z,8.93
2018-12-31T11:23:26.730Z,10.00
2018-12-31T11:25:59.883Z,9.40
2018-12-31T11:28:33.411Z,11.07
2018-12-31T11:31:06.706Z,9.10
2018-12-31T11:33:39.891Z,10.83
2018-12-31T11:36:13.419Z,9.63
2018-12-31T11:38:46.701Z,10.00
2018-12-31T11:41:20.159Z,8.27
2018-12-31T11:43:53.478Z,8.50
2018-12-31T11:46:26.686Z,10.30
2018-12-31T11:49:00.201Z,10.93
2018-12-31T11:51:33.665Z,9.80
2018-12-31T11:54:06.847Z,9.77
2018-12-31T11:56:40.457Z,11.23
2018-12-31T11:59:13.761Z,10.60
2018-12-31T12:01:46.996Z,9.53
2018-12-31T12:04:19.914Z,10.63
2018-12-31T12:06:53.496Z,9.17
2018-12-31T12:09:28.284Z,10.10
2018-12-31T12:12:01.232Z,10.33
2018-12-31T12:14:34.715Z,11.33
2018-12-31T12:17:07.753Z,9.57
2018-12-31T12:19:41.042Z,8.50
2018-12-31T12:22:14.376Z,10.47
2018-12-31T12:24:47.691Z,11.03
2018-12-31T12:27:21.138Z,8.90
2018-12-31T12:29:54.227Z,9.20
2018-12-31T12:32:31.031Z,8.67
2018-12-31T12:35:04.220Z,8.63
2018-12-31T12:37:38.018Z,17.17
2018-12-31T12:40:12.288Z,13.40
2018-12-31T12:52:26.368Z,13.40
2018-12-31T12:54:59.556Z,11.90
2018-12-31T12:57:33.233Z,9.27
2018-12-31T13:00:07.272Z,9.50
2018-12-31T13:02:40.708Z,9.90
2018-12-31T13:05:14.224Z,9.50
2018-12-31T13:07:47.381Z,9.00
2018-12-31T13:10:20.385Z,8.10
2018-12-31T13:12:53.659Z,7.60
2018-12-31T13:15:26.638Z,9.00
2018-12-31T13:18:00.049Z,7.97
2018-12-31T13:20:33.419Z,7.90
2018-12-31T13:23:06.484Z,7.83
2018-12-31T13:25:39.843Z,8.20
2018-12-31T13:28:15.868Z,8.23
2018-12-31T13:30:49.007Z,7.37
2018-12-31T13:33:22.014Z,7.13
2018-12-31T13:35:55.764Z,8.93
2018-12-31T13:38:29.104Z,6.47
2018-12-31T13:41:02.452Z,8.90
2018-12-31T13:43:35.824Z,8.33
2018-12-31T13:46:08.968Z,8.57
2018-12-31T13:48:42.447Z,8.73
2018-12-31T13:51:15.352Z,8.13
2018-12-31T13:53:50.813Z,10.93
2018-12-31T13:56:24.911Z,12.03
2018-12-31T13:58:58.243Z,8.87
2018-12-31T14:01:33.703Z,8.90
2018-12-31T14:04:07.885Z,10.40
2018-12-31T14:06:41.416Z,12.47
2018-12-31T14:09:14.636Z,10.37
2018-12-31T14:11:47.939Z,9.90
2018-12-31T14:14:22.011Z,9.13
2018-12-31T14:16:55.175Z,11.25
2018-12-31T14:19:28.964Z,8.90
2018-12-31T14:22:02.486Z,10.47
2018-12-31T14:24:35.907Z,11.27
2018-12-31T14:27:09.174Z,9.93
2018-12-31T14:29:42.487Z,10.57
2018-12-31T14:32:15.973Z,9.17
2018-12-31T14:34:49.512Z,8.60
2018-12-31T14:37:23.236Z,10.77
2018-12-31T14:39:56.632Z,8.93
2018-12-31T14:42:30.196Z,8.63
2018-12-31T14:45:03.487Z,10.47
2018-12-31T14:47:36.708Z,9.53
2018-12-31T14:50:10.159Z,9.87
2018-12-31T14:52:43.082Z,10.83
2018-12-31T14:55:16.739Z,11.07
2018-12-31T14:57:50.088Z,10.47
2018-12-31T15:00:23.680Z,9.57
2018-12-31T15:02:56.617Z,7.90
2018-12-31T15:05:29.968Z,8.43
2018-12-31T15:08:03.403Z,10.03
2018-12-31T15:10:37.121Z,8.53
2018-12-31T15:13:10.862Z,11.43
2018-12-31T15:15:45.252Z,10.20
2018-12-31T15:18:39.140Z,7.93
2018-12-31T15:21:13.062Z,8.30
2018-12-31T15:23:46.433Z,7.90
2018-12-31T15:26:19.997Z,8.70
2018-12-31T15:28:53.838Z,7.20
2018-12-31T15:31:27.423Z,7.43
2018-12-31T15:34:01.109Z,8.17
2018-12-31T15:36:34.580Z,8.50
2018-12-31T15:39:09.360Z,10.63
2018-12-31T15:41:42.930Z,12.93
2018-12-31T15:44:17.875Z,12.83
2018-12-31T15:46:51.669Z,11.73
2018-12-31T15:49:25.188Z,8.03
2018-12-31T15:52:01.129Z,8.97
2018-12-31T15:54:34.652Z,11.23
2018-12-31T15:57:08.430Z,9.40
2018-12-31T15:59:43.863Z,9.47
2018-12-31T16:02:17.489Z,11.20
2018-12-31T16:04:51.549Z,19.07
2018-12-31T16:07:27.788Z,31.40
2018-12-31T16:10:01.835Z,33.17
2018-12-31T16:12:35.191Z,23.50
2018-12-31T16:15:10.032Z,29.60
2018-12-31T16:17:43.400Z,31.07
2018-12-31T16:20:18.065Z,25.17
2018-12-31T16:22:51.401Z,27.10
2018-12-31T16:25:26.117Z,30.87
2018-12-31T16:27:59.320Z,19.60
2018-12-31T16:30:32.575Z,16.97
2018-12-31T16:33:06.311Z,16.70
2018-12-31T16:35:39.629Z,22.90
2018-12-31T16:38:13.055Z,22.13
2018-12-31T16:40:46.219Z,31.30
2018-12-31T16:43:20.256Z,27.60
2018-12-31T16:45:53.820Z,22.67
2018-12-31T16:48:27.434Z,16.93
2018-12-31T16:51:00.796Z,17.37
2018-12-31T16:53:33.994Z,25.50
2018-12-31T16:56:07.321Z,25.10
2018-12-31T16:58:40.854Z,19.20
2018-12-31T17:01:14.121Z,17.73
2018-12-31T17:03:47.698Z,17.43
2018-12-31T17:06:21.024Z,14.93
2018-12-31T17:08:58.058Z,14.53
2018-12-31T17:11:31.272Z,12.90
2018-12-31T17:14:04.744Z,12.47
2018-12-31T17:16:37.788Z,11.67
2018-12-31T17:19:11.919Z,11.33
2018-12-31T17:21:45.385Z,9.23
2018-12-31T17:24:18.382Z,11.23
2018-12-31T17:26:51.675Z,9.90
2018-12-31T17:29:24.788Z,9.77
2018-12-31T17:31:58.458Z,9.33
2018-12-31T17:34:31.717Z,10.00
2018-12-31T17:37:06.015Z,8.90
2018-12-31T17:39:40.179Z,11.43
2018-12-31T17:42:14.238Z,10.60
2018-12-31T17:44:47.694Z,10.30
2018-12-31T17:47:20.661Z,11.50
2018-12-31T17:49:54.540Z,16.00
2018-12-31T17:52:27.355Z,11.70
2018-12-31T17:55:00.590Z,10.87
2018-12-31T17:57:33.495Z,9.47
2018-12-31T18:00:08.515Z,8.93
2018-12-31T18:02:41.648Z,10.17
2018-12-31T18:05:14.827Z,13.07
2018-12-31T18:07:48.234Z,11.23
2018-12-31T18:10:21.270Z,10.30
2018-12-31T18:12:54.616Z,10.63
2018-12-31T18:15:27.806Z,9.67
2018-12-31T18:18:00.963Z,8.33
2018-12-31T18:20:34.634Z,10.43
2018-12-31T18:23:07.598Z,10.63
2018-12-31T18:25:41.288Z,9.37
2018-12-31T18:28:14.135Z,10.00
2018-12-31T18:30:47.438Z,9.07
2018-12-31T18:33:20.524Z,10.93
2018-12-31T18:35:53.486Z,9.53
2018-12-31T18:38:27.167Z,9.73
2018-12-31T18:41:00.346Z,8.57
2018-12-31T18:43:33.285Z,8.97
2018-12-31T18:46:07.099Z,9.57
2018-12-31T18:48:49.284Z,9.53
2018-12-31T18:51:25.780Z,10.00
2018-12-31T18:54:01.958Z,9.90
2018-12-31T18:56:41.327Z,9.00
2018-12-31T18:59:15.766Z,9.43
2018-12-31T19:01:53.095Z,9.10
2018-12-31T19:04:29.500Z,10.60
2018-12-31T19:07:05.540Z,13.37
2018-12-31T19:09:39.264Z,13.77
2018-12-31T19:12:16.043Z,11.70
2018-12-31T19:14:53.090Z,13.77
2018-12-31T19:17:30.302Z,15.40
2018-12-31T19:20:06.867Z,16.83
2018-12-31T19:22:42.830Z,15.37
2018-12-31T19:25:21.305Z,15.23
2018-12-31T19:27:59.780Z,15.93
2018-12-31T19:30:35.443Z,14.57
2018-12-31T19:33:11.695Z,16.03
2018-12-31T19:35:49.274Z,14.93
2018-12-31T19:38:25.339Z,15.67
2018-12-31T19:41:02.121Z,17.50
2018-12-31T19:43:40.353Z,12.27
2018-12-31T19:46:17.843Z,20.50
2018-12-31T19:48:52.073Z,29.93
2018-12-31T19:51:27.874Z,33.20
2018-12-31T19:54:02.933Z,20.60
2018-12-31T19:56:37.790Z,13.03
2018-12-31T19:59:13.495Z,12.33
2018-12-31T20:01:50.315Z,13.03
2018-12-31T20:04:26.412Z,13.73
2018-12-31T20:07:01.615Z,14.53
2018-12-31T20:09:37.543Z,14.70
2018-12-31T20:12:14.048Z,21.50
2018-12-31T20:14:47.551Z,24.33
2018-12-31T20:17:20.760Z,17.07
2018-12-31T20:19:53.960Z,18.23
2018-12-31T20:22:27.038Z,15.20
2018-12-31T20:24:59.752Z,12.83
2018-12-31T20:27:32.828Z,13.07
2018-12-31T20:30:06.479Z,12.33
2018-12-31T20:32:39.597Z,14.60
2018-12-31T20:35:12.622Z,13.30
2018-12-31T20:37:46.137Z,15.53
2018-12-31T20:40:18.990Z,15.57
2018-12-31T20:42:52.346Z,17.03
2018-12-31T20:45:25.706Z,13.60
2018-12-31T20:48:01.891Z,13.90
2018-12-31T20:50:34.077Z,12.50
2018-12-31T20:53:07.875Z,19.33
2018-12-31T20:55:40.601Z,19.10
2018-12-31T20:58:13.614Z,15.83
2018-12-31T21:00:46.881Z,16.53
2018-12-31T21:03:20.167Z,15.10
2018-12-31T21:05:53.193Z,15.17
2018-12-31T21:08:26.535Z,15.30
2018-12-31T21:10:59.686Z,14.80
2018-12-31T21:13:32.507Z,15.13
2018-12-31T21:16:05.739Z,14.63
2018-12-31T21:18:39.011Z,15.37
2018-12-31T21:21:12.659Z,14.57
2018-12-31T21:23:46.174Z,17.17
2018-12-31T21:26:19.709Z,14.50
2018-12-31T21:28:52.642Z,13.47
2018-12-31T21:31:26.202Z,16.70
2018-12-31T21:33:59.441Z,15.23
2018-12-31T21:36:32.455Z,16.37
2018-12-31T21:39:07.043Z,14.33
2018-12-31T21:41:40.116Z,14.50
2018-12-31T21:44:13.167Z,16.63
2018-12-31T21:46:46.051Z,15.07
2018-12-31T21:49:19.628Z,14.90
2018-12-31T21:51:52.875Z,17.80
2018-12-31T21:54:26.612Z,18.33
2018-12-31T21:57:02.366Z,17.20
2018-12-31T21:59:35.864Z,17.10
2018-12-31T22:02:09.441Z,17.23
2018-12-31T22:04:42.782Z,22.30
2018-12-31T22:07:16.815Z,17.97
2018-12-31T22:09:50.165Z,16.77
2018-12-31T22:12:23.318Z,17.70
2018-12-31T22:14:56.672Z,18.83
2018-12-31T22:17:30.163Z,16.77
2018-12-31T22:20:03.420Z,17.60
2018-12-31T22:22:36.690Z,15.53
2018-12-31T22:25:10.217Z,16.03
2018-12-31T22:27:43.854Z,20.57
2018-12-31T22:30:17.197Z,22.70
2018-12-31T22:32:50.499Z,24.63
2018-12-31T22:35:23.820Z,25.43
2018-12-31T22:37:57.444Z,28.43
2018-12-31T22:40:30.795Z,31.23
2018-12-31T22:43:03.830Z,30.20
2018-12-31T22:45:37.020Z,42.07
2018-12-31T22:48:10.028Z,60.23
2018-12-31T22:50:43.434Z,33.23
2018-12-31T22:53:16.757Z,38.33
2018-12-31T22:55:50.123Z,33.63
2018-12-31T22:58:23.201Z,48.73
2018-12-31T23:00:56.036Z,33.97
2018-12-31T23:03:29.489Z,33.43
2018-12-31T23:06:02.610Z,38.23
2018-12-31T23:08:35.919Z,54.80
2018-12-31T23:11:09.456Z,42.63
2018-12-31T23:13:44.447Z,46.93
2018-12-31T23:16:23.404Z,44.03
2018-12-31T23:18:57.063Z,43.17
2018-12-31T23:21:29.809Z,37.33
2018-12-31T23:24:02.613Z,40.17
2018-12-31T23:26:36.309Z,36.47
2018-12-31T23:29:09.478Z,37.83
2018-12-31T23:31:42.747Z,49.57
2018-12-31T23:34:16.032Z,49.67
2018-12-31T23:36:48.914Z,59.47
2018-12-31T23:39:23.677Z,92.90
2018-12-31T23:41:57.056Z,56.90
2018-12-31T23:44:30.904Z,61.60
2018-12-31T23:47:04.324Z,63.73
2018-12-31T23:49:37.479Z,66.73
2018-12-31T23:52:10.939Z,64.63
2018-12-31T23:54:44.446Z,81.60
2018-12-31T23:57:18.018Z,87.20
2018-12-31T23:59:51.507Z,96.70
